TimeCDT,TemperatureF,Dew PointF,Humidity,Sea Level PressureIn,VisibilityMPH,Wind Direction,Wind SpeedMPH,Gust SpeedMPH,PrecipitationIn,Events,Conditions,WindDirDegrees,DateUTC
12:51 AM,73.0,63.0,71,30.01,10.0,South,5.8,-,N/A,,Partly Cloudy,170,2013-09-07 05:51:00
1:51 AM,71.1,63.0,75,29.99,10.0,SSW,5.8,-,N/A,,Partly Cloudy,200,2013-09-07 06:51:00
2:51 AM,70.0,63.0,78,29.99,10.0,SSW,4.6,-,N/A,,Partly Cloudy,200,2013-09-07 07:51:00
3:51 AM,69.1,62.1,78,29.99,10.0,SSW,5.8,-,N/A,,Partly Cloudy,200,2013-09-07 08:51:00
4:51 AM,69.1,62.1,78,29.98,10.0,SSW,6.9,-,N/A,,Scattered Clouds,200,2013-09-07 09:51:00
5:51 AM,69.1,62.1,78,29.99,10.0,SW,6.9,-,N/A,,Mostly Cloudy,220,2013-09-07 10:51:00
6:51 AM,68.0,61.0,78,29.98,10.0,SSW,6.9,-,N/A,,Mostly Cloudy,200,2013-09-07 11:51:00
7:51 AM,70.0,62.1,76,29.98,10.0,SW,6.9,-,N/A,,Mostly Cloudy,220,2013-09-07 12:51:00
8:51 AM,73.9,62.1,66,29.97,10.0,SW,12.7,-,N/A,,Mostly Cloudy,230,2013-09-07 13:51:00
9:51 AM,73.9,62.1,66,29.97,10.0,West,6.9,-,N/A,,Mostly Cloudy,270,2013-09-07 14:51:00
10:51 AM,79.0,62.1,56,29.96,10.0,WSW,11.5,-,N/A,,Mostly Cloudy,250,2013-09-07 15:51:00
11:51 AM,82.0,60.1,47,29.94,10.0,SW,12.7,-,N/A,,Mostly Cloudy,230,2013-09-07 16:51:00
12:51 PM,84.9,59.0,41,29.90,10.0,SW,11.5,-,N/A,,Mostly Cloudy,230,2013-09-07 17:51:00
1:51 PM,84.0,59.0,43,29.91,10.0,WSW,16.1,-,N/A,,Mostly Cloudy,240,2013-09-07 18:51:00
2:51 PM,84.0,60.1,44,29.91,10.0,WSW,11.5,-,N/A,,Mostly Cloudy,240,2013-09-07 19:51:00
3:51 PM,84.0,59.0,43,29.91,10.0,West,4.6,-,N/A,,Mostly Cloudy,270,2013-09-07 20:51:00
4:51 PM,86.0,59.0,40,29.89,10.0,SW,4.6,-,N/A,,Mostly Cloudy,230,2013-09-07 21:51:00
5:51 PM,80.1,66.0,62,29.88,10.0,ESE,6.9,-,N/A,,Mostly Cloudy,110,2013-09-07 22:51:00
6:51 PM,82.9,59.0,44,29.87,10.0,WSW,9.2,-,N/A,,Scattered Clouds,240,2013-09-07 23:51:00
7:51 PM,80.1,61.0,52,29.89,10.0,WSW,4.6,-,N/A,,Scattered Clouds,240,2013-09-08 00:51:00
8:51 PM,80.1,61.0,52,29.89,10.0,SW,5.8,-,N/A,,Partly Cloudy,220,2013-09-08 01:51:00
9:51 PM,79.0,61.0,54,29.90,10.0,SSW,3.5,-,N/A,,Scattered Clouds,200,2013-09-08 02:51:00
10:51 PM,79.0,62.1,56,29.90,10.0,SW,3.5,-,N/A,,Mostly Cloudy,220,2013-09-08 03:51:00
11:51 PM,78.1,63.0,60,29.92,10.0,North,11.5,16.1,N/A,,Mostly Cloudy,10,2013-09-08 04:51:00